Flight Track Log - Related Links

Times and Time Zones

All times are in EDT time to prevent confusion due to time zone crossing. See the C-GHVM flight status page for this flight to view local times or setup timezone preferences in your user account.

Time Position Orientation Groundspeed Altitude Reporting Facility
EDT Latitude Longitude Course Direction KTS MPH feet Rate Location/Type
Sun 02:28:43 PM 49.9500 -119.3667 360° North 10 12 1,400  Level Vancouver Center
Sun 02:30:43 PM 49.9500 -119.3667 90° East 10 12 1,400 33 Level Vancouver Center
Sun 02:31:43 PM 49.9333 -119.3667 180° South 60 69 1,500 600 Climbing Vancouver Center
Sun 02:32:43 PM 49.9000 -119.3667 180° South 130 150 2,600 1,300 Climbing Vancouver Center
Sun 02:33:43 PM 49.8833 -119.4000 232° Southwest 120 138 4,100 1,350 Climbing Vancouver Center
Sun 02:34:43 PM 49.8500 -119.4500 224° Southwest 120 138 5,300 1,300 Climbing Vancouver Center
Sun 02:35:43 PM 49.8500 -119.5000 270° West 130 150 6,700 1,300 Climbing Vancouver Center
Sun 02:36:43 PM 49.8333 -119.5500 243° Southwest 130 150 7,900 1,050 Climbing Vancouver Center
Sun 02:37:43 PM 49.8000 -119.6000 224° Southwest 150 173 8,800 650 Climbing Vancouver Center
Sun 02:38:43 PM 49.7833 -119.6667 249° West 180 207 9,200 700 Climbing Vancouver Center
Sun 02:39:43 PM 49.8167 -119.7333 308° West 180 207 10,200 1,000 Climbing Vancouver Center
Sun 02:40:43 PM 49.8333 -119.7833 297° West 170 196 11,200 1,000 Climbing Vancouver Center
Sun 02:41:43 PM 49.8500 -119.8333 297° West 160 184 12,200 1,000 Climbing Vancouver Center
Sun 02:42:43 PM 49.8500 -119.9167 270° West 170 196 13,200 1,000 Climbing Vancouver Center
Sun 02:43:43 PM 49.8500 -120.0000 270° West 170 196 14,200 1,050 Climbing Vancouver Center
Sun 02:44:43 PM 49.8333 -120.0500 243° Southwest 170 196 15,300 1,000 Climbing Vancouver Center
Sun 02:45:43 PM 49.8167 -120.1167 249° West 160 184 16,200 950 Climbing Vancouver Center
Sun 02:46:43 PM 49.8167 -120.1833 270° West 160 184 17,200 1,050 Climbing Vancouver Center
Sun 02:47:43 PM 49.8000 -120.2500 249° West 160 184 18,300 1,050 Climbing Vancouver Center
Sun 02:48:43 PM 49.7833 -120.3333 253° West 160 184 19,300 1,000 Climbing Vancouver Center
Sun 02:49:43 PM 49.7667 -120.3833 243° Southwest 160 184 20,300 1,000 Climbing Vancouver Center
Sun 02:50:43 PM 49.7667 -120.4333 270° West 150 173 21,300 850 Climbing Vancouver Center
Sun 02:51:43 PM 49.7667 -120.5167 270° West 150 173 22,000 350 Climbing Vancouver Center
Sun 02:52:43 PM 49.7500 -120.6000 253° West 170 196 22,000  Level Vancouver Center
Sun 02:53:43 PM 49.7333 -120.6667 249° West 200 230 22,000  Level Vancouver Center
Sun 02:54:43 PM 49.7167 -120.7833 258° West 210 242 22,000  Level Vancouver Center
Sun 02:55:44 PM 49.7000 -120.8500 249° West 220 253 22,000  Level Vancouver Center
Sun 02:56:43 PM 49.6833 -120.9667 258° West 220 253 22,000  Level Vancouver Center
Sun 02:57:43 PM 49.6667 -121.0333 249° West 220 253 22,000  Level Vancouver Center
Sun 02:58:43 PM 49.6500 -121.1500 258° West 220 253 22,000  Level Vancouver Center
Sun 02:59:43 PM 49.6500 -121.2167 270° West 220 253 22,000  Level Vancouver Center
Sun 03:00:43 PM 49.6333 -121.3167 256° West 220 253 22,000  Level Vancouver Center
Sun 03:01:43 PM 49.6167 -121.4000 253° West 220 253 22,000  Level Vancouver Center
Sun 03:02:43 PM 49.6000 -121.5000 256° West 220 253 22,000  Level Vancouver Center
Sun 03:03:43 PM 49.5833 -121.5833 253° West 220 253 22,000 -100 Level Vancouver Center
Sun 03:04:43 PM 49.5667 -121.6833 256° West 220 253 21,800 -400 Descending Vancouver Center
Sun 03:05:43 PM 49.5500 -121.7667 253° West 220 253 21,200 -800 Descending Vancouver Center
Sun 03:06:43 PM 49.5333 -121.8667 256° West 220 253 20,200 -1,200 Descending Vancouver Center
Sun 03:07:43 PM 49.5167 -121.9667 256° West 230 265 18,800 -1,500 Descending Vancouver Center
Sun 03:08:43 PM 49.5167 -122.0500 270° West 240 276 17,200 -1,850 Descending Vancouver Center
Sun 03:09:43 PM 49.4667 -122.1500 232° Southwest 240 276 15,100 -2,000 Descending Vancouver Center
Sun 03:10:43 PM 49.4333 -122.2333 238° Southwest 230 265 13,200 -1,983 Descending Vancouver Center
Sun 03:11:44 PM 49.4000 -122.3167 238° Southwest 220 253 11,100 -1,450 Descending Vancouver Center
Sun 03:12:43 PM 49.3833 -122.3833 249° West 200 230 10,300 -706 Descending Vancouver Center
Sun 03:13:43 PM 49.3500 -122.4333 224° Southwest 180 207 9,700 -750 Descending Vancouver Center
Sun 03:14:43 PM 49.3167 -122.5167 238° Southwest 190 219 8,800 -950 Descending Vancouver Center
Sun 03:15:43 PM 49.2667 -122.5167 180° South 180 207 7,800 -950 Descending Vancouver Center
Sun 03:16:43 PM 49.2167 -122.5167 180° South 180 207 6,900 -950 Descending Vancouver Center
Sun 03:17:43 PM 49.1833 -122.5667 224° Southwest 170 196 5,900 -1,000 Descending Vancouver Center
Sun 03:18:43 PM 49.2000 -122.6500 287° West 180 207 4,900 -1,000 Descending Vancouver Center
Sun 03:19:43 PM 49.2333 -122.6167 33° Northeast 170 196 3,900 -1,041 Descending Vancouver Center
Sun 03:20:44 PM 49.2000 -122.5667 136° Southeast 160 184 2,800 -1,150 Descending Vancouver Center
Sun 03:21:43 PM 49.1833 -122.6000 233° Southwest 130 150 1,600 -958 Descending Vancouver Center
Sun 03:22:43 PM 49.2000 -122.6500 297° West 120 138 900 -550 Descending Vancouver Center
Sun 03:23:43 PM 49.2000 -122.7000 270° West 110 127 500 -400 Descending Vancouver Center

Login

Don't have an account? Register now (free) for customized features, flight alerts, and more!